Prendre note que le site web est en construction et que certains liens ne sont pas encore fonctionnels ou mise à jour.

-13 octobre 2018 = mise à jour dans la section menu "Acceuil"



Sites météorologiques /Documentations/ Programmes:

Météo Québec
Site web version 2
Modèle de Meteotemplate

CoCoRaHS Canada
Station CAN-QC-39

Météo Alerte Québec

Météo Centre

État des routes
Québec 511

Québec en Alerte

Orage Québec

Québec Vortex
chasseurs de tempêtes

Hydro Météo (info-rivière)

Avalanche Québec

Agrométéo Québec

Bulletin des agriculteurs secteur Québec

Réseau Météo-Québec

Réseau Météo des Provinces Atlantiques

Réseau Météo Ontario

Séismes Canada
l'Est du Canada

Fire Smoke Canada

Canwarn Québec

Climat Québec

Environnement Canada

MétéoMédia

Leuven Template

Réseau de transport de la Capitale (RTC)


Équipements et logiciels de la station:

Davis Pro 2

Weather Display

Asus/Intel

Rapidenet Canada

Rapports d'observations METAR régionales et provinciales

   
CWPD - L'ÉTAPE
Mise à jour: 19-10-2018 18:00
  
  
   
Température: 1°C
Facteur éolien: -1°C
Point de rosée: 1°C
Humidité relative: 100%
CWPD 192200Z AUTO 16004KT 01/01 RMK AO1 SLP061 T00110005 55009
CYBG - BAGOTVILLE
Mise à jour: 19-10-2018 18:00
  
  
   
Température: 2°C
Facteur éolien: -4°C
Point de rosée: 0°C
Humidité relative: 87%
Pression barométrique: 100.41 kPa
Nuages: Nuageux
visibilité: 40.2 km
Détails des nuages: Partiellement nuageux 3500 ft,
Nuageux 8700 ft
CYBG 192200Z 07015KT 25SM SCT035 OVC087 02/M00 A2965 RMK SC3AC5 SLP050
CYRJ - ROBERVAL
Mise à jour: 19-10-2018 18:21
  
  
   
Température: 3°C
Facteur éolien: -1°C
Point de rosée: 2°C
Humidité relative: 93%
Pression barométrique: 100.17 kPa
Nuages: Nuageux
visibilité: 19.3 km
Détails des nuages: Quelques nuages 700 ft,
Généralement nuageux 2300 ft,
Nuageux 6900 ft
CYRJ 192221Z 12007G15KT 12SM -RA FEW007 BKN023 OVC069 03/02 A2958 RMK SF2SC5AC1 SLP026
CYRQ - TROIS-RIVIÈRES
Mise à jour: 19-10-2018 18:00
  
  
   
Température: 13°C
Point de rosée: 7°C
Humidité relative: 67%
Pression barométrique: 100.54 kPa
Nuages: Généralement nuageux
visibilité: 14.5 km
Détails des nuages: Quelques nuages 18000 ft,
Partiellement nuageux 21000 ft,
Généralement nuageux 23000 ft
CYRQ 192200Z AUTO 21016G21KT 9SM FEW180 SCT210 BKN230 13/07 A2969 RMK SLP057 DENSITY ALT 200FT
CYYY - MONT-JOLI
Mise à jour: 19-10-2018 18:00
  
  
   
Température: 2°C
Facteur éolien: -1°C
Point de rosée: -4°C
Humidité relative: 65%
Pression barométrique: 100.88 kPa
Nuages: Nuageux
visibilité: 48.3 km
Détails des nuages: Nuageux 2300 ft
CYYY 192200Z 17006KT 30SM OVC023 02/M04 A2979 RMK SC8 SLP093
CYUL - MONTRÉAL
Mise à jour: 19-10-2018 18:00
  
  
   
Température: 14°C
Point de rosée: 7°C
Humidité relative: 63%
Pression barométrique: 100.75 kPa
Nuages: Nuageux
visibilité: 48.3 km
Détails des nuages: Quelques nuages 14000 ft,
Généralement nuageux 20000 ft,
Nuageux 24000 ft
CYUL 192200Z 23016KT 30SM FEW140 BKN200 OVC240 14/07 A2975 RMK AC1CI5CI2 SLP075 DENSITY ALT 300FT
CYQB - QUÉBEC
Mise à jour: 19-10-2018 18:00
  
  
   
Température: 5°C
Point de rosée: 2°C
Humidité relative: 81%
Pression barométrique: 100.71 kPa
Nuages: Généralement nuageux
visibilité: 32.2 km
Détails des nuages: Quelques nuages 4500 ft,
Généralement nuageux 18000 ft,
Généralement nuageux 25000 ft
CYQB 192200Z 36002KT 20SM FEW045 BKN180 BKN250 05/02 A2974 RMK SC2AC3CI2 SLP075
CYRJ - SAGUENUAY
Mise à jour: 19-10-2018 18:21
  
  
   
Température: 3°C
Facteur éolien: -1°C
Point de rosée: 2°C
Humidité relative: 93%
Pression barométrique: 100.17 kPa
Nuages: Nuageux
visibilité: 19.3 km
Détails des nuages: Quelques nuages 700 ft,
Généralement nuageux 2300 ft,
Nuageux 6900 ft
CYRJ 192221Z 12007G15KT 12SM -RA FEW007 BKN023 OVC069 03/02 A2958 RMK SF2SC5AC1 SLP026
CWZS - AMQUI
Mise à jour: 19-10-2018 18:00
  
  
   
Température: 1°C
Facteur éolien: -2°C
Point de rosée: -4°C
Humidité relative: 70%
CWZS 192200Z AUTO 16005KT 01/M04 RMK AO1 SLP104 T00071042 56012
CWOC - NEW CARLISLE
Mise à jour: 19-10-2018 18:00
  
  
   
Température: 1°C
Point de rosée: -5°C
Humidité relative: 65%
CWOC 192200Z AUTO 00000KT 01/M05 RMK AO1 SLP134 T00111047 56005
CYBX - BLANC-SABLON
Mise à jour: 19-10-2018 18:00
  
  
   
Température: 1°C
Facteur éolien: -1°C
Point de rosée: -3°C
Humidité relative: 75%
Pression barométrique: 101.02 kPa
Nuages: Nuageux
visibilité: 24.1 km
Détails des nuages: Nuageux 4100 ft
CYBX 192200Z 27003KT 15SM OVC041 01/M03 A2983 RMK SC8 SLP106
CYAD - BAIE-JAMES
Mise à jour: 30-10-2015 16:00
PAS actuel
  
  
   
Température: -2°C
Facteur éolien: -8°C
Point de rosée: -4°C
Humidité relative: 86%
Pression barométrique: 100.51 kPa
Nuages: Nuageux
visibilité: 9.7 km
Détails des nuages: Nuageux 1200 ft
CYAD 302000Z 31011G17KT 6SM -SHSN OVC012 M02/M04 A2968 RMK SC7 LAST OBS/NEXT 021200 UTC SLP066
CYMT - CHIBOUGAMAU
Mise à jour: 19-10-2018 18:23
  
  
   
Température: 4°C
Facteur éolien: 0°C
Point de rosée: 3°C
Humidité relative: 93%
Pression barométrique: 99.56 kPa
Nuages: Nuageux
visibilité: 14.5 km
Détails des nuages: Nuageux 600 ft
CYMT 192223Z AUTO 18009KT 9SM OVC006 04/03 A2940 RMK SLP973
CYGR - ILES-DE-LA-MADELEINE
Mise à jour: 19-10-2018 18:00
  
  
   
Température: 2°C
Facteur éolien: -2°C
Point de rosée: -6°C
Humidité relative: 56%
Pression barométrique: 101.56 kPa
Nuages: Partiellement nuageux
visibilité: 24.1 km
Détails des nuages: Partiellement nuageux 3900 ft
CYGR 192200Z 28009G18KT 15SM SCT039 02/M06 A2999 RMK SC3 SLP158
CWBY - PORT-MENIER
Mise à jour: 19-10-2018 18:00
  
  
   
Température: -2°C
Facteur éolien: -4°C
Point de rosée: -7°C
Humidité relative: 69%
CWBY 192200Z AUTO 25003KT M02/M07 RMK AO1 SLP124 T10191074 53005
CYZV - SEPT-ILES
Mise à jour: 19-10-2018 18:00
  
  
   
Température: 0°C
Facteur éolien: -3°C
Point de rosée: -8°C
Humidité relative: 55%
Pression barométrique: 101.12 kPa
Nuages: Nuageux
visibilité: 24.1 km
Détails des nuages: Nuageux 8000 ft
CYZV 192200Z 20005KT 15SM OVC080 M00/M08 A2986 RMK AC8 SLP117
CYGP - SHERBROOKE
Mise à jour: 19-10-2018 18:00
  
  
   
Température: 0°C
Point de rosée: -7°C
Humidité relative: 60%
Pression barométrique: 101.32 kPa
Nuages: Généralement nuageux
visibilité: 24.1 km
Détails des nuages: Généralement nuageux 8800 ft
CYGP 192200Z VRB02KT 15SM BKN088 00/M07 A2992 RMK AC7 SLP134
CYZV - GATINEAU
Mise à jour: 19-10-2018 18:00
  
  
   
Température: 0°C
Facteur éolien: -3°C
Point de rosée: -8°C
Humidité relative: 55%
Pression barométrique: 101.12 kPa
Nuages: Nuageux
visibilité: 24.1 km
Détails des nuages: Nuageux 8000 ft
CYZV 192200Z 20005KT 15SM OVC080 M00/M08 A2986 RMK AC8 SLP117
CYOW - OTTAWA
Mise à jour: 19-10-2018 18:00
  
  
   
Température: 13°C
Point de rosée: 7°C
Humidité relative: 67%
Pression barométrique: 100.75 kPa
Nuages: Généralement nuageux
visibilité: 24.1 km
Détails des nuages: Partiellement nuageux 12000 ft,
Généralement nuageux 14000 ft,
Généralement nuageux 17000 ft
CYOW 192200Z 20013G19KT 15SM SCT120 BKN140 BKN170 13/07 A2975 RMK AC4AC1AS2 SLP078 DENSITY ALT 500FT
  

Script original développé par  Saratoga-weather.org Adapté pour le modèle par  Weerstation Leuven

Les données sont envoyées via ces sites météo:

WeatherCloud

Weather Underground

Quebec Weather Network

AWEKAS

HAMweather, WeatherForYou, PWS Weather